createdAt,value
2019-05-26T00:02:20.585Z,95377.22
2019-05-26T00:04:49.792Z,95374.97
2019-05-26T00:07:30.293Z,95372.20
2019-05-26T00:09:50.151Z,95371.88
2019-05-26T00:12:20.707Z,95363.23
2019-05-26T00:14:50.078Z,95368.82
2019-05-26T00:17:18.859Z,95369.25
2019-05-26T00:19:47.750Z,95361.77
2019-05-26T00:22:16.642Z,95360.82
2019-05-26T00:24:45.535Z,95361.57
2019-05-26T00:27:14.423Z,95358.00
2019-05-26T00:29:43.313Z,95356.05
2019-05-26T00:32:12.309Z,95350.76
2019-05-26T00:34:41.197Z,95345.31
2019-05-26T00:37:10.396Z,95344.28
2019-05-26T00:39:39.184Z,95340.06
2019-05-26T00:42:08.268Z,95334.16
2019-05-26T00:44:37.171Z,95343.73
2019-05-26T00:47:06.063Z,95342.66
2019-05-26T00:49:35.057Z,95344.94
2019-05-26T00:52:04.054Z,95343.66
2019-05-26T00:54:33.045Z,95350.36
2019-05-26T00:57:02.025Z,95345.94
2019-05-26T00:59:30.826Z,95342.11
2019-05-26T01:01:59.717Z,95342.53
2019-05-26T01:04:28.609Z,95341.14
2019-05-26T01:06:57.405Z,95344.91
2019-05-26T01:09:26.288Z,95339.97
2019-05-26T01:11:55.179Z,95336.08
2019-05-26T01:14:24.071Z,95336.78
2019-05-26T01:16:55.820Z,95335.02
2019-05-26T01:19:24.825Z,95330.80
2019-05-26T01:21:53.612Z,95330.06
2019-05-26T01:24:22.505Z,95327.05
2019-05-26T01:26:51.394Z,95321.23
2019-05-26T01:29:20.285Z,95316.45
2019-05-26T01:31:49.177Z,95316.08
2019-05-26T01:34:18.254Z,95312.16
2019-05-26T01:36:47.444Z,95319.42
2019-05-26T01:39:16.267Z,95320.22
2019-05-26T01:41:45.154Z,95327.29
2019-05-26T01:44:14.150Z,95327.44
2019-05-26T01:46:42.935Z,95324.81
2019-05-26T01:49:12.134Z,95326.22
2019-05-26T01:51:40.921Z,95320.67
2019-05-26T01:54:10.841Z,95327.01
2019-05-26T01:56:39.728Z,95330.45
2019-05-26T01:59:09.642Z,95327.05
2019-05-26T02:01:38.532Z,95327.05
2019-05-26T02:04:07.869Z,95323.78
2019-05-26T02:06:36.727Z,95335.77
2019-05-26T02:09:07.822Z,95333.80
2019-05-26T02:11:37.786Z,95336.01
2019-05-26T02:14:06.880Z,95336.34
2019-05-26T02:16:35.823Z,95341.73
2019-05-26T02:19:04.835Z,95332.06
2019-05-26T02:21:33.758Z,95333.08
2019-05-26T02:24:02.549Z,95329.72
2019-05-26T02:26:31.336Z,95330.00
2019-05-26T02:29:00.126Z,95328.73
2019-05-26T02:31:28.916Z,95328.73
2019-05-26T02:33:57.807Z,95330.51
2019-05-26T02:36:26.698Z,95324.66
2019-05-26T02:39:02.628Z,95324.98
2019-05-26T02:41:26.123Z,95321.34
2019-05-26T02:43:55.930Z,95320.59
2019-05-26T02:46:24.827Z,95323.13
2019-05-26T02:48:53.722Z,95320.33
2019-05-26T02:51:22.606Z,95336.13
2019-05-26T02:53:51.497Z,95320.31
2019-05-26T02:56:20.974Z,95327.81
2019-05-26T02:58:49.795Z,95320.31
2019-05-26T03:01:19.100Z,95318.03
2019-05-26T03:03:48.084Z,95315.19
2019-05-26T03:06:17.665Z,95320.10
2019-05-26T03:08:49.786Z,95311.09
2019-05-26T03:11:19.734Z,95308.05
2019-05-26T03:13:50.062Z,95305.09
2019-05-26T03:16:21.039Z,95302.91
2019-05-26T03:18:51.985Z,95314.23
2019-05-26T03:21:22.060Z,95312.00
2019-05-26T03:23:53.759Z,95313.81
2019-05-26T03:26:24.079Z,95312.42
2019-05-26T03:28:52.878Z,95312.03
2019-05-26T03:31:21.762Z,95308.98
2019-05-26T03:33:50.660Z,95316.38
2019-05-26T03:36:19.544Z,95307.56
2019-05-26T03:38:48.433Z,95318.70
2019-05-26T03:41:17.333Z,95324.81
2019-05-26T03:43:46.216Z,95308.45
2019-05-26T03:46:20.173Z,95308.45
2019-05-26T03:48:49.837Z,95317.39
2019-05-26T03:51:18.727Z,95316.67
2019-05-26T03:53:47.720Z,95317.86
2019-05-26T03:56:16.716Z,95315.30
2019-05-26T03:58:45.604Z,95327.51
2019-05-26T04:01:14.512Z,95323.46
2019-05-26T04:03:43.489Z,95326.48
2019-05-26T04:06:12.380Z,95329.10
2019-05-26T04:08:41.272Z,95334.86
2019-05-26T04:11:11.237Z,95333.38
2019-05-26T04:13:43.859Z,95336.39
2019-05-26T04:16:12.654Z,95336.08
2019-05-26T04:18:41.447Z,95335.02
2019-05-26T04:21:10.951Z,95337.02
2019-05-26T04:23:39.848Z,95333.08
2019-05-26T04:26:09.062Z,95332.06
2019-05-26T04:28:37.930Z,95334.11
2019-05-26T04:31:06.828Z,95338.58
2019-05-26T04:33:35.723Z,95332.42
2019-05-26T04:36:04.707Z,95336.69
2019-05-26T04:38:33.598Z,95330.55
2019-05-26T04:41:02.521Z,95335.09
2019-05-26T04:43:31.379Z,95339.65
2019-05-26T04:46:00.170Z,95336.13
2019-05-26T04:48:29.062Z,95332.77
2019-05-26T04:50:57.950Z,95336.03
2019-05-26T04:53:26.843Z,95336.06
2019-05-26T04:55:55.733Z,95341.04
2019-05-26T04:58:24.629Z,95347.41
2019-05-26T05:00:53.413Z,95345.84
2019-05-26T05:03:22.307Z,95346.67
2019-05-26T05:05:51.197Z,95348.38
2019-05-26T05:08:20.087Z,95350.97
2019-05-26T05:10:49.491Z,95347.75
2019-05-26T05:13:18.379Z,95351.50
2019-05-26T05:15:47.271Z,95353.83
2019-05-26T05:18:16.060Z,95353.72
2019-05-26T05:20:44.952Z,95357.58
2019-05-26T05:23:13.947Z,95359.44
2019-05-26T05:25:42.836Z,95359.89
2019-05-26T05:28:12.034Z,95356.16
2019-05-26T05:30:40.824Z,95359.36
2019-05-26T05:33:10.127Z,95368.89
2019-05-26T05:35:39.017Z,95359.47
2019-05-26T05:38:08.010Z,95365.28
2019-05-26T05:40:36.903Z,95367.41
2019-05-26T05:43:05.796Z,95365.05
2019-05-26T05:45:34.689Z,95364.33
2019-05-26T05:48:04.579Z,95371.20
2019-05-26T05:50:33.388Z,95374.33
2019-05-26T05:53:02.281Z,95379.84
2019-05-26T05:55:31.170Z,95370.52
2019-05-26T05:58:00.061Z,95371.22
2019-05-26T06:00:29.468Z,95372.75
2019-05-26T06:02:58.358Z,95368.62
2019-05-26T06:05:27.245Z,95379.12
2019-05-26T06:07:56.137Z,95370.06
2019-05-26T06:10:25.028Z,95369.50
2019-05-26T06:12:53.964Z,95369.11
2019-05-26T06:15:23.016Z,95360.97
2019-05-26T06:17:51.808Z,95366.59
2019-05-26T06:20:20.794Z,95363.35
2019-05-26T06:22:49.687Z,95367.48
2019-05-26T06:25:18.930Z,95365.05
2019-05-26T06:27:47.883Z,95364.02
2019-05-26T06:30:17.334Z,95362.19
2019-05-26T06:32:46.277Z,95366.61
2019-05-26T06:35:15.856Z,95362.53
2019-05-26T06:37:44.675Z,95351.38
2019-05-26T06:40:14.242Z,95356.89
2019-05-26T06:42:43.174Z,95354.66
2019-05-26T06:45:12.884Z,95353.83
2019-05-26T06:47:41.673Z,95349.45
2019-05-26T06:50:11.846Z,95351.21
2019-05-26T06:52:40.686Z,95359.85
2019-05-26T06:55:10.923Z,95353.36
2019-05-26T06:57:39.797Z,95354.50
2019-05-26T07:00:09.079Z,95358.18
2019-05-26T07:02:38.004Z,95355.70
2019-05-26T07:05:08.479Z,95359.26
2019-05-26T07:07:37.309Z,95358.38
2019-05-26T07:10:07.191Z,95364.70
2019-05-26T07:12:36.319Z,95363.38
2019-05-26T07:15:08.347Z,95361.81
2019-05-26T07:17:37.177Z,95359.55
2019-05-26T07:20:07.458Z,95360.67
2019-05-26T07:22:36.391Z,95353.30
2019-05-26T07:25:07.175Z,95348.53
2019-05-26T07:27:36.117Z,95350.75
2019-05-26T07:30:07.405Z,95346.05
2019-05-26T07:32:36.337Z,95341.86
2019-05-26T07:35:09.046Z,95345.41
2019-05-26T07:37:37.826Z,95341.92
2019-05-26T07:40:07.741Z,95344.37
2019-05-26T07:42:36.634Z,95345.59
2019-05-26T07:45:07.286Z,95346.63
2019-05-26T07:47:36.190Z,95339.88
2019-05-26T07:50:06.901Z,95340.40
2019-05-26T07:52:35.802Z,95340.58
2019-05-26T07:55:08.194Z,95341.16
2019-05-26T07:57:37.048Z,95337.39
2019-05-26T08:00:07.886Z,95335.80
2019-05-26T08:02:36.675Z,95332.88
2019-05-26T08:05:09.462Z,95329.66
2019-05-26T08:07:38.347Z,95335.02
2019-05-26T08:10:08.035Z,95335.81
2019-05-26T08:12:36.950Z,95330.70
2019-05-26T08:15:09.403Z,95331.50
2019-05-26T08:17:39.874Z,95333.45
2019-05-26T08:20:11.491Z,95327.38
2019-05-26T08:22:40.402Z,95332.32
2019-05-26T08:25:10.216Z,95330.41
2019-05-26T08:27:39.108Z,95324.75
2019-05-26T08:30:08.618Z,95330.08
2019-05-26T08:32:37.498Z,95333.28
2019-05-26T08:35:08.249Z,95325.02
2019-05-26T08:37:39.999Z,95323.34
2019-05-26T08:40:19.638Z,95325.88
2019-05-26T08:42:52.226Z,95318.81
2019-05-26T08:45:22.721Z,95315.13
2019-05-26T08:47:52.198Z,95310.00
2019-05-26T08:50:21.990Z,95316.42
2019-05-26T08:52:50.850Z,95314.06
2019-05-26T08:55:19.950Z,95307.91
2019-05-26T08:57:48.836Z,95304.73
2019-05-26T09:00:18.141Z,95313.42
2019-05-26T09:02:47.030Z,95299.75
2019-05-26T09:05:16.270Z,95303.43
2019-05-26T09:07:45.117Z,95302.63
2019-05-26T09:10:14.460Z,95301.46
2019-05-26T09:12:43.413Z,95304.88
2019-05-26T09:15:13.635Z,95304.05
2019-05-26T09:17:42.522Z,95298.77
2019-05-26T09:20:13.521Z,95299.12
2019-05-26T09:22:42.624Z,95298.23
2019-05-26T09:25:12.567Z,95302.31
2019-05-26T09:27:41.374Z,95301.55
2019-05-26T09:30:11.087Z,95288.78
2019-05-26T09:32:41.812Z,95285.95
2019-05-26T09:35:12.852Z,95288.85
2019-05-26T09:37:41.750Z,95290.70
2019-05-26T09:40:11.333Z,95287.02
2019-05-26T09:42:40.246Z,95293.90
2019-05-26T09:45:12.380Z,95295.49
2019-05-26T09:47:41.304Z,95296.00
2019-05-26T09:50:11.320Z,95296.02
2019-05-26T09:52:40.214Z,95287.53
2019-05-26T09:55:11.623Z,95292.56
2019-05-26T09:57:40.451Z,95288.34
2019-05-26T10:00:15.855Z,95284.83
2019-05-26T10:02:43.048Z,95284.83
2019-05-26T10:05:12.853Z,95285.17
2019-05-26T10:07:41.754Z,95297.06
2019-05-26T10:10:12.219Z,95285.19
2019-05-26T10:12:41.274Z,95285.95
2019-05-26T10:15:10.995Z,95290.19
2019-05-26T10:17:39.978Z,95282.77
2019-05-26T10:20:09.473Z,95290.36
2019-05-26T10:22:38.384Z,95287.48
2019-05-26T10:25:08.663Z,95294.16
2019-05-26T10:27:37.796Z,95290.72
2019-05-26T10:30:08.679Z,95287.96
2019-05-26T10:32:37.629Z,95289.89
2019-05-26T10:35:09.896Z,95273.23
2019-05-26T10:37:38.992Z,95287.42
2019-05-26T10:40:09.593Z,95272.55
2019-05-26T10:42:38.414Z,95275.94
2019-05-26T10:45:09.448Z,95275.28
2019-05-26T10:47:38.426Z,95276.36
2019-05-26T10:50:08.614Z,95259.77
2019-05-26T10:52:37.567Z,95258.95
2019-05-26T10:55:08.013Z,95254.44
2019-05-26T10:57:37.074Z,95251.42
2019-05-26T11:00:10.068Z,95255.94
2019-05-26T11:02:39.070Z,95248.38
2019-05-26T11:05:08.555Z,95258.19
2019-05-26T11:07:37.369Z,95245.39
2019-05-26T11:10:07.286Z,95249.92
2019-05-26T11:12:36.376Z,95246.15
2019-05-26T11:15:07.439Z,95246.45
2019-05-26T11:17:36.305Z,95248.12
2019-05-26T11:20:09.938Z,95248.91
2019-05-26T11:22:38.798Z,95243.81
2019-05-26T11:25:08.383Z,95242.12
2019-05-26T11:27:37.308Z,95234.98
2019-05-26T11:30:08.617Z,95238.37
2019-05-26T11:32:37.537Z,95235.56
2019-05-26T11:35:06.844Z,95233.45
2019-05-26T11:37:35.730Z,95230.94
2019-05-26T11:40:06.821Z,95221.03
2019-05-26T11:42:35.764Z,95219.09
2019-05-26T11:45:07.346Z,95226.45
2019-05-26T11:47:36.210Z,95213.39
2019-05-26T11:50:06.988Z,95215.23
2019-05-26T11:52:35.937Z,95230.23
2019-05-26T11:55:06.727Z,95216.61
2019-05-26T11:57:37.063Z,95221.81
2019-05-26T12:00:13.333Z,95207.55
2019-05-26T12:02:42.765Z,95210.66
2019-05-26T12:05:12.784Z,95206.59
2019-05-26T12:07:41.673Z,95208.13
2019-05-26T12:10:14.192Z,95205.50
2019-05-26T12:12:42.530Z,95203.07
2019-05-26T12:15:13.475Z,95206.31
2019-05-26T12:17:42.359Z,95202.52
2019-05-26T12:20:13.262Z,95207.95
2019-05-26T12:22:42.193Z,95207.10
2019-05-26T12:25:12.310Z,95209.75
2019-05-26T12:27:41.201Z,95198.22
2019-05-26T12:30:12.430Z,95199.29
2019-05-26T12:32:41.344Z,95194.09
2019-05-26T12:35:12.904Z,95191.46
2019-05-26T12:37:43.217Z,95187.19
2019-05-26T12:40:13.255Z,95192.18
2019-05-26T12:42:42.226Z,95200.10
2019-05-26T12:45:12.450Z,95197.63
2019-05-26T12:47:41.356Z,95195.22
2019-05-26T12:50:10.990Z,95187.09
2019-05-26T12:52:39.841Z,95186.88
2019-05-26T12:55:10.202Z,95187.86
2019-05-26T12:57:39.169Z,95183.00
2019-05-26T13:00:09.395Z,95181.89
2019-05-26T13:02:38.279Z,95182.66
2019-05-26T13:05:09.263Z,95185.39
2019-05-26T13:07:39.640Z,95180.86
2019-05-26T13:10:09.527Z,95182.48
2019-05-26T13:12:38.901Z,95175.78
2019-05-26T13:15:09.956Z,95177.66
2019-05-26T13:17:38.796Z,95171.77
2019-05-26T13:20:09.612Z,95182.61
2019-05-26T13:22:39.973Z,95183.92
2019-05-26T13:25:10.898Z,95185.39
2019-05-26T13:27:39.786Z,95195.63
2019-05-26T13:30:11.978Z,95199.65
2019-05-26T13:32:41.049Z,95198.30
2019-05-26T13:35:11.368Z,95200.06
2019-05-26T13:37:40.265Z,95203.33
2019-05-26T13:40:10.319Z,95200.97
2019-05-26T13:42:39.173Z,95207.66
2019-05-26T13:45:21.862Z,95199.94
2019-05-26T13:47:40.163Z,95198.06
2019-05-26T13:50:10.025Z,95205.41
2019-05-26T13:52:38.934Z,95201.26
2019-05-26T13:55:11.809Z,95196.97
2019-05-26T13:57:41.638Z,95201.73
2019-05-26T14:00:14.151Z,95200.20
2019-05-26T14:02:43.103Z,95203.88
2019-05-26T14:05:13.575Z,95198.00
2019-05-26T14:07:43.851Z,95206.66
2019-05-26T14:10:14.714Z,95214.23
2019-05-26T14:12:43.783Z,95210.48
2019-05-26T14:15:13.709Z,95213.86
2019-05-26T14:17:43.391Z,95206.91
2019-05-26T14:20:14.602Z,95204.02
2019-05-26T14:22:44.469Z,95215.52
2019-05-26T14:25:15.587Z,95208.89
2019-05-26T14:27:45.220Z,95204.70
2019-05-26T14:30:14.317Z,95202.98
2019-05-26T14:32:43.210Z,95199.04
2019-05-26T14:35:12.919Z,95201.17
2019-05-26T14:37:41.808Z,95194.52
2019-05-26T14:40:11.683Z,95199.41
2019-05-26T14:42:40.616Z,95191.43
2019-05-26T14:45:10.001Z,95190.34
2019-05-26T14:47:38.807Z,95189.79
2019-05-26T14:50:08.389Z,95190.79
2019-05-26T14:52:37.412Z,95182.09
2019-05-26T14:55:06.801Z,95183.56
2019-05-26T14:57:35.806Z,95191.21
2019-05-26T15:00:10.751Z,95189.05
2019-05-26T15:02:39.834Z,95187.42
2019-05-26T15:05:09.509Z,95186.41
2019-05-26T15:07:38.544Z,95188.28
2019-05-26T15:10:08.623Z,95188.28
2019-05-26T15:12:37.651Z,95192.55
2019-05-26T15:15:08.099Z,95185.45
2019-05-26T15:17:36.970Z,95185.52
2019-05-26T15:20:07.621Z,95181.20
2019-05-26T15:22:36.906Z,95172.56
2019-05-26T15:25:08.085Z,95181.12
2019-05-26T15:27:36.941Z,95180.34
2019-05-26T15:30:06.824Z,95184.48
2019-05-26T15:32:35.764Z,95184.48
2019-05-26T15:35:06.729Z,95179.99
2019-05-26T15:37:35.574Z,95183.06
2019-05-26T15:40:07.199Z,95177.91
2019-05-26T15:42:36.025Z,95176.17
2019-05-26T15:45:07.005Z,95171.91
2019-05-26T15:47:35.954Z,95172.23
2019-05-26T15:50:08.958Z,95174.39
2019-05-26T15:52:37.993Z,95174.17
2019-05-26T15:55:07.234Z,95168.37
2019-05-26T15:57:36.229Z,95165.91
2019-05-26T16:00:09.049Z,95160.39
2019-05-26T16:02:37.904Z,95147.67
2019-05-26T16:05:08.318Z,95147.49
2019-05-26T16:07:37.126Z,95147.17
2019-05-26T16:10:07.911Z,95138.89
2019-05-26T16:12:36.855Z,95142.23
2019-05-26T16:15:12.224Z,95136.91
2019-05-26T16:17:41.081Z,95141.86
2019-05-26T16:20:11.891Z,95133.48
2019-05-26T16:22:40.911Z,95130.64
2019-05-26T16:25:10.224Z,95132.67
2019-05-26T16:27:39.102Z,95143.92
2019-05-26T16:30:08.818Z,95140.64
2019-05-26T16:32:37.702Z,95138.41
2019-05-26T16:35:07.113Z,95131.96
2019-05-26T16:37:36.000Z,95134.84
2019-05-26T16:40:06.383Z,95130.87
2019-05-26T16:42:35.323Z,95130.61
2019-05-26T16:45:06.035Z,95135.95
2019-05-26T16:47:34.844Z,95125.50
2019-05-26T16:50:04.504Z,95125.80
2019-05-26T16:52:33.458Z,95128.16
2019-05-26T16:55:02.333Z,95126.71
2019-05-26T16:57:31.222Z,95125.14
2019-05-26T17:00:00.230Z,95123.42
2019-05-26T17:02:29.111Z,95119.89
2019-05-26T17:04:58.000Z,95126.95
2019-05-26T17:07:26.890Z,95120.66
2019-05-26T17:09:55.782Z,95121.38
2019-05-26T17:12:24.680Z,95116.41
2019-05-26T17:14:53.565Z,95121.63
2019-05-26T17:17:23.993Z,95112.47
2019-05-26T17:19:53.046Z,95110.73
2019-05-26T17:22:22.696Z,95116.70
2019-05-26T17:24:51.587Z,95104.67
2019-05-26T17:27:20.686Z,95112.33
2019-05-26T17:29:49.584Z,95097.63
2019-05-26T17:32:18.481Z,95100.72
2019-05-26T17:34:47.357Z,95097.92
2019-05-26T17:37:16.247Z,95100.95
2019-05-26T17:39:45.140Z,95099.08
2019-05-26T17:42:14.030Z,95097.78
2019-05-26T17:44:42.924Z,95098.88
2019-05-26T17:47:12.532Z,95095.54
2019-05-26T17:49:41.423Z,95098.70
2019-05-26T17:52:11.340Z,95097.14
2019-05-26T17:54:40.227Z,95099.83
2019-05-26T17:57:09.337Z,95094.89
2019-05-26T17:59:38.216Z,95102.80
2019-05-26T18:02:07.098Z,95102.44
2019-05-26T18:04:36.130Z,95099.20
2019-05-26T18:07:05.664Z,95097.06
2019-05-26T18:09:43.648Z,95091.02
2019-05-26T18:12:05.127Z,95093.23
2019-05-26T18:14:34.022Z,95097.02
2019-05-26T18:17:02.911Z,95097.89
2019-05-26T18:19:31.806Z,95096.94
2019-05-26T18:22:00.694Z,95098.80
2019-05-26T18:24:29.585Z,95095.59
2019-05-26T18:26:58.578Z,95100.83
2019-05-26T18:29:27.358Z,95094.27
2019-05-26T18:31:56.358Z,95095.08
2019-05-26T18:34:25.359Z,95099.40
2019-05-26T18:36:54.246Z,95097.88
2019-05-26T18:39:23.140Z,95091.85
2019-05-26T18:41:52.028Z,95101.50
2019-05-26T18:44:23.479Z,95101.67
2019-05-26T18:46:53.713Z,95096.24
2019-05-26T18:49:22.800Z,95098.61
2019-05-26T18:51:51.688Z,95090.80
2019-05-26T18:54:20.624Z,95084.87
2019-05-26T18:56:49.572Z,95085.17
2019-05-26T18:59:18.475Z,95086.73
2019-05-26T19:01:47.358Z,95083.50
2019-05-26T19:04:16.351Z,95082.06
2019-05-26T19:06:45.243Z,95087.70
2019-05-26T19:09:14.132Z,95085.84
2019-05-26T19:11:43.024Z,95098.56
2019-05-26T19:14:12.222Z,95094.61
2019-05-26T19:16:41.113Z,95087.82
2019-05-26T19:19:10.925Z,95089.48
2019-05-26T19:21:39.817Z,95090.85
2019-05-26T19:24:09.632Z,95087.14
2019-05-26T19:26:38.522Z,95088.22
2019-05-26T19:29:07.706Z,95094.59
2019-05-26T19:31:36.511Z,95090.66
2019-05-26T19:34:05.504Z,95086.23
2019-05-26T19:36:35.930Z,95094.47
2019-05-26T19:39:07.688Z,95094.59
2019-05-26T19:41:39.124Z,95086.94
2019-05-26T19:44:10.707Z,95100.17
2019-05-26T19:46:39.693Z,95097.50
2019-05-26T19:49:08.751Z,95098.99
2019-05-26T19:51:37.680Z,95101.14
2019-05-26T19:54:06.668Z,95098.34
2019-05-26T19:56:35.562Z,95093.80
2019-05-26T19:59:04.859Z,95097.78
2019-05-26T20:01:33.752Z,95096.17
2019-05-26T20:04:02.641Z,95103.86
2019-05-26T20:06:31.535Z,95099.81
2019-05-26T20:09:00.434Z,95108.03
2019-05-26T20:11:29.224Z,95109.34
2019-05-26T20:13:58.104Z,95113.71
2019-05-26T20:16:30.565Z,95122.67
2019-05-26T20:18:57.733Z,95124.26
2019-05-26T20:21:26.627Z,95123.95
2019-05-26T20:23:55.515Z,95128.52
2019-05-26T20:26:24.406Z,95130.63
2019-05-26T20:28:53.319Z,95132.17
2019-05-26T20:31:22.090Z,95123.28
2019-05-26T20:33:50.980Z,95126.41
2019-05-26T20:36:19.866Z,95121.39
2019-05-26T20:38:48.756Z,95115.34
2019-05-26T20:41:17.648Z,95124.29
2019-05-26T20:43:46.539Z,95117.97
2019-05-26T20:46:15.431Z,95120.03
2019-05-26T20:48:44.322Z,95126.09
2019-05-26T20:51:13.215Z,95122.14
2019-05-26T20:53:42.107Z,95125.36
2019-05-26T20:56:11.711Z,95118.52
2019-05-26T20:58:40.682Z,95115.87
2019-05-26T21:01:10.313Z,95120.59
2019-05-26T21:04:01.379Z,95120.10
2019-05-26T21:06:30.219Z,95121.92
2019-05-26T21:08:59.164Z,95123.76
2019-05-26T21:11:28.001Z,95125.31
2019-05-26T21:13:56.894Z,95126.39
2019-05-26T21:16:25.780Z,95130.64
2019-05-26T21:18:54.673Z,95125.39
2019-05-26T21:21:23.569Z,95123.54
2019-05-26T21:23:52.455Z,95124.61
2019-05-26T21:26:21.358Z,95124.61
2019-05-26T21:28:50.549Z,95131.72
2019-05-26T21:31:19.434Z,95128.02
2019-05-26T21:33:48.327Z,95120.37
2019-05-26T21:36:17.220Z,95114.87
2019-05-26T21:38:47.235Z,95113.80
2019-05-26T21:41:16.136Z,95113.77
2019-05-26T21:43:45.531Z,95110.34
2019-05-26T21:46:14.423Z,95120.91
2019-05-26T21:48:43.314Z,95105.85
2019-05-26T21:51:12.203Z,95112.21
2019-05-26T21:53:41.095Z,95106.41
2019-05-26T21:56:10.599Z,95100.86
2019-05-26T21:58:39.594Z,95109.30
2019-05-26T22:01:08.895Z,95109.03
2019-05-26T22:03:37.786Z,95109.05
2019-05-26T22:06:06.569Z,95112.98
2019-05-26T22:08:35.479Z,95110.05
2019-05-26T22:11:04.459Z,95108.99
2019-05-26T22:13:33.354Z,95110.58
2019-05-26T22:16:02.240Z,95105.80
2019-05-26T22:18:31.134Z,95106.84
2019-05-26T22:21:00.029Z,95103.67
2019-05-26T22:23:28.915Z,95107.27
2019-05-26T22:25:57.702Z,95103.05
2019-05-26T22:28:26.595Z,95109.48
2019-05-26T22:30:55.386Z,95111.07
2019-05-26T22:33:24.275Z,95104.39
2019-05-26T22:35:53.267Z,95102.55
2019-05-26T22:38:22.060Z,95102.90
2019-05-26T22:40:50.949Z,95106.77
2019-05-26T22:43:19.946Z,95108.30
2019-05-26T22:45:48.835Z,95099.59
2019-05-26T22:48:17.725Z,95096.61
2019-05-26T22:50:46.615Z,95102.23
2019-05-26T22:53:15.511Z,95086.74
2019-05-26T22:55:44.401Z,95096.95
2019-05-26T22:58:13.291Z,95093.05
2019-05-26T23:00:42.386Z,95091.73
2019-05-26T23:03:11.483Z,95084.19
2019-05-26T23:05:40.379Z,95078.41
2019-05-26T23:08:09.673Z,95079.00
2019-05-26T23:10:38.565Z,95072.43
2019-05-26T23:13:08.073Z,95074.52
2019-05-26T23:15:37.678Z,95066.69
2019-05-26T23:18:06.574Z,95061.91
2019-05-26T23:20:35.463Z,95061.87
2019-05-26T23:23:04.363Z,95059.80
2019-05-26T23:25:33.245Z,95061.37
2019-05-26T23:28:02.138Z,95058.52
2019-05-26T23:30:31.130Z,95054.52
2019-05-26T23:33:00.024Z,95062.97
2019-05-26T23:35:28.911Z,95054.05
2019-05-26T23:37:57.806Z,95053.33
2019-05-26T23:40:26.692Z,95049.25
2019-05-26T23:42:55.587Z,95054.13
2019-05-26T23:45:24.475Z,95048.06
2019-05-26T23:47:53.367Z,95051.25
2019-05-26T23:50:22.258Z,95045.69
2019-05-26T23:52:51.217Z,95045.16
2019-05-26T23:55:20.169Z,95043.50
2019-05-26T23:57:49.033Z,95045.69
